createdAt,value
2017-12-06T00:02:27.122Z,13.70
2017-12-06T00:04:55.607Z,13.80
2017-12-06T00:07:23.006Z,13.87
2017-12-06T00:09:50.983Z,14.60
2017-12-06T00:12:24.737Z,13.27
2017-12-06T00:14:57.879Z,13.27
2017-12-06T00:17:25.703Z,12.67
2017-12-06T00:19:53.111Z,12.23
2017-12-06T00:22:20.522Z,12.83
2017-12-06T00:24:47.976Z,12.20
2017-12-06T00:27:15.392Z,12.53
2017-12-06T00:29:42.816Z,12.73
2017-12-06T00:32:11.003Z,12.07
2017-12-06T00:34:38.424Z,12.10
2017-12-06T00:37:05.847Z,12.83
2017-12-06T00:39:34.023Z,12.20
2017-12-06T00:42:01.447Z,12.80
2017-12-06T00:44:28.871Z,12.80
2017-12-06T00:46:56.290Z,13.47
2017-12-06T00:49:24.374Z,13.37
2017-12-06T00:51:51.790Z,12.67
2017-12-06T00:54:19.603Z,12.00
2017-12-06T00:56:47.482Z,12.03
2017-12-06T00:59:14.874Z,14.30
2017-12-06T01:01:42.299Z,13.43
2017-12-06T01:04:10.523Z,12.43
2017-12-06T01:06:37.943Z,12.77
2017-12-06T01:09:10.128Z,13.60
2017-12-06T01:11:38.700Z,13.00
2017-12-06T01:14:07.992Z,14.30
2017-12-06T01:16:36.182Z,13.07
2017-12-06T01:19:07.267Z,11.63
2017-12-06T01:21:34.687Z,11.93
2017-12-06T01:24:02.103Z,11.83
2017-12-06T01:26:29.526Z,12.73
2017-12-06T01:28:56.951Z,13.43
2017-12-06T01:31:27.468Z,13.80
2017-12-06T01:33:55.654Z,12.03
2017-12-06T01:36:23.062Z,11.63
2017-12-06T01:38:50.896Z,12.37
2017-12-06T01:41:18.315Z,12.37
2017-12-06T01:43:46.513Z,13.60
2017-12-06T01:46:14.463Z,13.40
2017-12-06T01:48:42.660Z,14.13
2017-12-06T01:51:10.084Z,13.73
2017-12-06T01:53:37.498Z,14.07
2017-12-06T01:56:04.923Z,15.87
2017-12-06T01:58:32.343Z,15.43
2017-12-06T02:00:59.760Z,15.27
2017-12-06T02:03:27.839Z,16.07
2017-12-06T02:05:55.259Z,15.40
2017-12-06T02:08:22.696Z,15.43
2017-12-06T02:10:50.884Z,15.53
2017-12-06T02:13:19.595Z,14.37
2017-12-06T02:15:47.011Z,15.00
2017-12-06T02:18:14.438Z,15.97
2017-12-06T02:20:42.432Z,16.07
2017-12-06T02:23:09.855Z,17.23
2017-12-06T02:25:37.279Z,17.07
2017-12-06T02:28:04.975Z,16.77
2017-12-06T02:30:32.376Z,16.77
2017-12-06T02:33:01.090Z,15.83
2017-12-06T02:35:28.517Z,17.83
2017-12-06T02:37:56.701Z,16.13
2017-12-06T02:40:36.646Z,16.07
2017-12-06T02:43:16.798Z,17.07
2017-12-06T02:45:44.983Z,15.10
2017-12-06T02:48:13.169Z,17.97
2017-12-06T02:50:40.595Z,17.13
2017-12-06T02:53:08.010Z,16.97
2017-12-06T02:55:35.426Z,16.83
2017-12-06T02:58:02.853Z,17.57
2017-12-06T03:00:30.271Z,16.23
2017-12-06T03:02:57.691Z,16.13
2017-12-06T03:05:25.898Z,15.87
2017-12-06T03:07:53.316Z,17.87
2017-12-06T03:10:21.530Z,16.93
2017-12-06T03:12:48.956Z,17.73
2017-12-06T03:15:17.130Z,17.43
2017-12-06T03:17:45.311Z,17.33
2017-12-06T03:20:13.275Z,18.90
2017-12-06T03:22:41.744Z,18.73
2017-12-06T03:25:09.687Z,17.57
2017-12-06T03:27:37.099Z,17.50
2017-12-06T03:30:04.515Z,18.67
2017-12-06T03:32:31.935Z,16.83
2017-12-06T03:34:59.891Z,18.63
2017-12-06T03:37:27.334Z,17.67
2017-12-06T03:39:54.774Z,19.33
2017-12-06T03:42:22.957Z,18.40
2017-12-06T03:44:50.369Z,19.00
2017-12-06T03:47:17.787Z,18.50
2017-12-06T03:49:48.266Z,17.57
2017-12-06T03:52:15.699Z,18.63
2017-12-06T03:54:43.632Z,19.20
2017-12-06T03:57:11.439Z,18.93
2017-12-06T03:59:38.868Z,19.17
2017-12-06T04:02:06.283Z,18.80
2017-12-06T04:04:34.468Z,20.43
2017-12-06T04:07:03.262Z,18.83
2017-12-06T04:09:30.680Z,20.13
2017-12-06T04:11:58.101Z,20.80
2017-12-06T04:14:25.523Z,20.57
2017-12-06T04:16:54.070Z,20.03
2017-12-06T04:19:22.064Z,21.53
2017-12-06T04:21:50.260Z,20.07
2017-12-06T04:24:17.684Z,19.50
2017-12-06T04:26:45.115Z,20.57
2017-12-06T04:29:12.534Z,20.30
2017-12-06T04:31:44.780Z,19.10
2017-12-06T04:34:12.878Z,19.77
2017-12-06T04:36:42.131Z,19.37
2017-12-06T04:39:09.659Z,20.23
2017-12-06T04:41:37.078Z,19.40
2017-12-06T04:44:05.485Z,19.80
2017-12-06T04:46:32.904Z,19.57
2017-12-06T04:49:01.090Z,19.80
2017-12-06T04:51:29.266Z,18.77
2017-12-06T04:53:56.700Z,19.17
2017-12-06T04:56:24.115Z,18.37
2017-12-06T04:58:51.851Z,18.30
2017-12-06T05:01:19.476Z,18.77
2017-12-06T05:03:46.906Z,19.30
2017-12-06T05:06:17.882Z,17.23
2017-12-06T05:08:45.306Z,17.87
2017-12-06T05:11:13.176Z,18.33
2017-12-06T05:13:40.602Z,19.20
2017-12-06T05:16:09.347Z,19.83
2017-12-06T05:18:36.781Z,18.63
2017-12-06T05:21:04.204Z,21.27
2017-12-06T05:23:31.627Z,18.83
2017-12-06T05:25:59.820Z,19.23
2017-12-06T05:28:27.664Z,19.67
2017-12-06T05:30:55.854Z,19.43
2017-12-06T05:33:24.599Z,18.77
2017-12-06T05:35:52.011Z,18.60
2017-12-06T05:38:20.775Z,20.23
2017-12-06T05:40:49.245Z,20.30
2017-12-06T05:43:17.652Z,19.60
2017-12-06T05:45:45.063Z,19.07
2017-12-06T05:48:12.951Z,18.03
2017-12-06T05:50:40.371Z,18.47
2017-12-06T05:53:07.787Z,17.07
2017-12-06T05:55:35.832Z,18.23
2017-12-06T05:58:03.256Z,16.83
2017-12-06T06:00:30.680Z,17.03
2017-12-06T06:02:58.483Z,17.83
2017-12-06T06:05:25.891Z,19.40
2017-12-06T06:07:53.311Z,17.47
2017-12-06T06:10:20.775Z,17.83
2017-12-06T06:12:48.784Z,17.33
2017-12-06T06:15:17.026Z,18.57
2017-12-06T06:17:45.214Z,18.10
2017-12-06T06:20:15.799Z,17.47
2017-12-06T06:22:43.751Z,18.33
2017-12-06T06:25:11.725Z,18.83
2017-12-06T06:27:39.143Z,18.00
2017-12-06T06:30:07.475Z,19.60
2017-12-06T06:32:38.219Z,19.07
2017-12-06T06:35:05.647Z,19.70
2017-12-06T06:37:33.071Z,18.73
2017-12-06T06:40:01.665Z,19.50
2017-12-06T06:42:30.215Z,19.50
2017-12-06T06:44:57.642Z,18.60
2017-12-06T06:47:25.457Z,19.97
2017-12-06T06:49:53.665Z,20.83
2017-12-06T06:52:21.072Z,18.73
2017-12-06T06:54:49.259Z,20.77
2017-12-06T06:57:17.460Z,19.97
2017-12-06T06:59:44.876Z,20.23
2017-12-06T07:02:12.302Z,19.67
2017-12-06T07:04:39.723Z,19.03
2017-12-06T07:07:07.143Z,19.23
2017-12-06T07:09:36.173Z,18.23
2017-12-06T07:12:03.596Z,19.93
2017-12-06T07:14:31.015Z,18.57
2017-12-06T07:16:58.444Z,18.60
2017-12-06T07:19:25.863Z,19.00
2017-12-06T07:21:53.560Z,20.53
2017-12-06T07:24:22.139Z,19.13
2017-12-06T07:26:49.563Z,18.10
2017-12-06T07:29:17.403Z,18.57
2017-12-06T07:31:44.835Z,18.57
2017-12-06T07:34:12.539Z,17.73
2017-12-06T07:36:39.940Z,19.37
2017-12-06T07:39:07.883Z,18.80
2017-12-06T07:41:37.980Z,18.73
2017-12-06T07:44:05.403Z,17.90
2017-12-06T07:46:33.976Z,18.70
2017-12-06T07:49:01.807Z,19.30
2017-12-06T07:51:29.596Z,18.50
2017-12-06T07:53:59.496Z,18.20
2017-12-06T07:56:28.295Z,17.90
2017-12-06T07:59:03.225Z,17.37
2017-12-06T08:01:30.616Z,16.03
2017-12-06T08:03:58.816Z,14.53
2017-12-06T08:06:26.224Z,15.53
2017-12-06T08:08:54.766Z,15.40
2017-12-06T08:11:22.283Z,14.57
2017-12-06T08:13:55.829Z,14.47
2017-12-06T08:16:23.242Z,14.47
2017-12-06T08:18:50.667Z,14.57
2017-12-06T08:21:18.635Z,14.77
2017-12-06T08:23:46.833Z,13.97
2017-12-06T08:26:14.252Z,14.37
2017-12-06T08:28:42.861Z,13.93
2017-12-06T08:31:10.672Z,13.73
2017-12-06T08:33:39.195Z,14.03
2017-12-06T08:36:07.963Z,13.97
2017-12-06T08:38:35.392Z,13.80
2017-12-06T08:41:02.813Z,14.37
2017-12-06T08:43:30.230Z,13.23
2017-12-06T08:45:57.666Z,13.30
2017-12-06T08:48:26.222Z,13.80
2017-12-06T08:50:54.558Z,13.97
2017-12-06T08:53:22.366Z,13.73
2017-12-06T08:55:50.635Z,13.70
2017-12-06T08:58:18.055Z,14.73
2017-12-06T09:00:46.262Z,16.73
2017-12-06T09:03:13.675Z,15.97
2017-12-06T09:05:41.632Z,15.03
2017-12-06T09:08:09.050Z,16.50
2017-12-06T09:10:36.467Z,17.17
2017-12-06T09:13:04.667Z,17.83
2017-12-06T09:15:32.096Z,18.63
2017-12-06T09:17:59.518Z,17.40
2017-12-06T09:20:26.935Z,17.83
2017-12-06T09:22:54.357Z,17.03
2017-12-06T09:25:22.312Z,17.03
2017-12-06T09:27:49.738Z,17.30
2017-12-06T09:30:17.146Z,16.43
2017-12-06T09:32:45.994Z,15.83
2017-12-06T09:35:13.979Z,15.87
2017-12-06T09:37:41.410Z,14.90
2017-12-06T09:40:09.263Z,16.43
2017-12-06T09:42:36.698Z,15.90
2017-12-06T09:45:05.419Z,16.40
2017-12-06T09:47:32.835Z,16.63
2017-12-06T09:50:01.018Z,15.57
2017-12-06T09:52:29.217Z,16.83
2017-12-06T09:54:56.636Z,16.43
2017-12-06T09:57:24.267Z,16.27
2017-12-06T09:59:52.339Z,15.63
2017-12-06T10:02:19.748Z,17.47
2017-12-06T10:04:47.727Z,16.07
2017-12-06T10:07:15.154Z,16.80
2017-12-06T10:09:43.727Z,15.53
2017-12-06T10:12:11.144Z,16.87
2017-12-06T10:14:38.772Z,15.03
2017-12-06T10:17:07.275Z,14.73
2017-12-06T10:19:35.450Z,15.53
2017-12-06T10:22:03.274Z,14.73
2017-12-06T10:24:31.105Z,16.30
2017-12-06T10:26:58.917Z,16.60
2017-12-06T10:29:27.105Z,17.60
2017-12-06T10:31:54.520Z,17.20
2017-12-06T10:34:21.936Z,17.93
2017-12-06T10:36:49.358Z,17.63
2017-12-06T10:39:17.547Z,17.60
2017-12-06T10:41:45.412Z,17.60
2017-12-06T10:44:13.596Z,17.80
2017-12-06T10:46:41.130Z,18.07
2017-12-06T10:49:10.129Z,18.77
2017-12-06T10:51:37.935Z,17.83
2017-12-06T10:54:05.882Z,18.07
2017-12-06T10:56:33.301Z,19.60
2017-12-06T10:59:01.269Z,19.00
2017-12-06T11:01:29.498Z,19.40
2017-12-06T11:03:56.919Z,19.43
2017-12-06T11:06:25.106Z,20.03
2017-12-06T11:08:52.952Z,19.80
2017-12-06T11:11:20.386Z,19.53
2017-12-06T11:13:48.304Z,20.37
2017-12-06T11:16:16.266Z,20.70
2017-12-06T11:18:46.567Z,20.20
2017-12-06T11:21:13.977Z,20.77
2017-12-06T11:23:41.392Z,21.27
2017-12-06T11:26:09.580Z,20.60
2017-12-06T11:28:37.703Z,20.53
2017-12-06T11:31:05.922Z,20.10
2017-12-06T11:33:33.340Z,19.37
2017-12-06T11:36:01.151Z,20.63
2017-12-06T11:38:29.323Z,21.30
2017-12-06T11:40:56.747Z,18.77
2017-12-06T11:43:24.162Z,18.43
2017-12-06T11:45:51.593Z,19.07
2017-12-06T11:48:19.019Z,18.20
2017-12-06T11:50:46.437Z,18.33
2017-12-06T11:53:13.851Z,19.50
2017-12-06T11:55:42.053Z,19.90
2017-12-06T11:58:10.248Z,18.60
2017-12-06T12:00:38.439Z,18.07
2017-12-06T12:03:06.272Z,18.93
2017-12-06T12:05:33.694Z,18.03
2017-12-06T12:08:01.875Z,18.87
2017-12-06T12:10:30.068Z,18.40
2017-12-06T12:12:57.482Z,17.37
2017-12-06T12:15:24.912Z,17.70
2017-12-06T12:17:52.328Z,16.83
2017-12-06T12:20:20.304Z,17.53
2017-12-06T12:22:47.728Z,18.03
2017-12-06T12:25:16.192Z,16.87
2017-12-06T12:27:43.583Z,17.43
2017-12-06T12:30:10.996Z,17.47
2017-12-06T12:32:38.420Z,17.57
2017-12-06T12:35:07.028Z,17.10
2017-12-06T12:37:34.462Z,17.20
2017-12-06T12:40:01.868Z,17.13
2017-12-06T12:42:29.722Z,16.57
2017-12-06T12:44:57.195Z,17.17
2017-12-06T12:47:25.170Z,17.83
2017-12-06T12:49:52.583Z,19.27
2017-12-06T12:52:20.003Z,19.00
2017-12-06T12:54:47.430Z,16.23
2017-12-06T12:57:15.082Z,15.40
2017-12-06T12:59:43.313Z,13.00
2017-12-06T13:02:11.883Z,10.97
2017-12-06T13:04:40.034Z,11.67
2017-12-06T13:07:08.226Z,16.47
2017-12-06T13:09:35.644Z,16.30
2017-12-06T13:12:03.240Z,14.70
2017-12-06T13:14:31.922Z,11.57
2017-12-06T13:16:59.393Z,9.83
2017-12-06T13:19:26.808Z,9.63
2017-12-06T13:21:54.290Z,10.17
2017-12-06T13:24:21.648Z,10.57
2017-12-06T13:26:49.834Z,10.87
2017-12-06T13:29:17.256Z,12.10
2017-12-06T13:31:44.683Z,12.00
2017-12-06T13:34:12.099Z,11.73
2017-12-06T13:36:42.341Z,12.53
2017-12-06T13:39:09.767Z,12.90
2017-12-06T13:41:37.957Z,13.70
2017-12-06T13:44:06.070Z,15.40
2017-12-06T13:46:33.486Z,16.17
2017-12-06T13:49:00.908Z,16.80
2017-12-06T13:51:29.077Z,15.77
2017-12-06T13:53:56.488Z,15.93
2017-12-06T13:56:23.933Z,15.10
2017-12-06T13:58:51.934Z,15.63
2017-12-06T14:01:19.366Z,16.40
2017-12-06T14:03:46.801Z,15.27
2017-12-06T14:06:14.978Z,15.90
2017-12-06T14:08:43.166Z,14.73
2017-12-06T14:11:10.595Z,15.37
2017-12-06T14:13:38.788Z,14.60
2017-12-06T14:16:06.203Z,16.00
2017-12-06T14:18:33.938Z,16.10
2017-12-06T14:21:01.354Z,17.07
2017-12-06T14:23:29.785Z,16.57
2017-12-06T14:25:57.185Z,17.30
2017-12-06T14:28:25.367Z,15.53
2017-12-06T14:30:53.562Z,16.33
2017-12-06T14:33:21.288Z,15.00
2017-12-06T14:35:48.687Z,15.40
2017-12-06T14:38:16.102Z,15.43
2017-12-06T14:40:44.295Z,15.50
2017-12-06T14:43:12.657Z,14.83
2017-12-06T14:45:40.058Z,15.53
2017-12-06T14:48:07.477Z,14.27
2017-12-06T14:50:34.908Z,15.20
2017-12-06T14:53:02.324Z,14.00
2017-12-06T14:55:29.751Z,15.60
2017-12-06T14:57:57.936Z,15.20
2017-12-06T15:00:25.403Z,16.37
2017-12-06T15:02:52.820Z,15.67
2017-12-06T15:05:20.235Z,15.73
2017-12-06T15:07:47.766Z,17.13
2017-12-06T15:10:15.934Z,15.33
2017-12-06T15:12:44.122Z,16.27
2017-12-06T15:15:11.794Z,15.80
2017-12-06T15:17:39.959Z,15.70
2017-12-06T15:20:07.379Z,16.37
2017-12-06T15:22:34.800Z,15.67
2017-12-06T15:25:02.224Z,16.03
2017-12-06T15:27:29.649Z,16.17
2017-12-06T15:29:57.067Z,15.13
2017-12-06T15:32:24.492Z,16.87
2017-12-06T15:34:51.908Z,16.60
2017-12-06T15:37:19.330Z,15.80
2017-12-06T15:39:46.748Z,15.80
2017-12-06T15:42:14.939Z,16.80
2017-12-06T15:44:42.366Z,15.57
2017-12-06T15:47:09.790Z,15.27
2017-12-06T15:49:43.006Z,16.70
2017-12-06T15:52:10.776Z,14.53
2017-12-06T15:54:38.172Z,17.27
2017-12-06T15:57:25.196Z,17.43
2017-12-06T15:59:56.800Z,15.60
2017-12-06T16:02:24.224Z,16.57
2017-12-06T16:04:52.310Z,17.80
2017-12-06T16:07:20.700Z,16.53
2017-12-06T16:09:48.119Z,17.37
2017-12-06T16:12:15.535Z,16.03
2017-12-06T16:14:43.724Z,18.30
2017-12-06T16:17:12.293Z,18.53
2017-12-06T16:19:40.484Z,16.73
2017-12-06T16:22:08.346Z,19.13
2017-12-06T16:24:35.764Z,17.47
2017-12-06T16:27:04.268Z,17.90
2017-12-06T16:29:32.456Z,17.57
2017-12-06T16:32:00.653Z,17.60
2017-12-06T16:34:33.231Z,18.13
2017-12-06T16:37:12.695Z,16.60
2017-12-06T16:39:40.378Z,17.73
2017-12-06T16:42:07.764Z,19.00
2017-12-06T16:44:52.766Z,18.63
2017-12-06T16:47:20.198Z,17.37
2017-12-06T16:49:47.621Z,17.87
2017-12-06T16:52:15.034Z,18.90
2017-12-06T16:54:42.469Z,17.47
2017-12-06T16:57:09.884Z,19.17
2017-12-06T16:59:37.879Z,19.53
2017-12-06T17:02:06.116Z,18.30
2017-12-06T17:04:33.491Z,19.00
2017-12-06T17:07:00.915Z,17.77
2017-12-06T17:09:29.343Z,17.93
2017-12-06T17:11:57.519Z,18.83
2017-12-06T17:14:25.712Z,18.63
2017-12-06T17:16:53.123Z,18.00
2017-12-06T17:19:20.560Z,18.47
2017-12-06T17:21:47.979Z,18.50
2017-12-06T17:24:15.411Z,18.97
2017-12-06T17:26:43.594Z,17.60
2017-12-06T17:29:24.400Z,18.43
2017-12-06T17:31:52.226Z,18.40
2017-12-06T17:34:22.881Z,19.30
2017-12-06T17:36:50.311Z,18.43
2017-12-06T17:39:18.502Z,18.90
2017-12-06T17:41:45.922Z,18.63
2017-12-06T17:44:13.351Z,19.83
2017-12-06T17:46:40.799Z,18.93
2017-12-06T17:49:08.256Z,20.53
2017-12-06T17:51:35.671Z,20.40
2017-12-06T17:54:03.866Z,19.03
2017-12-06T17:56:31.283Z,19.93
2017-12-06T17:58:58.699Z,21.27
2017-12-06T18:01:26.124Z,19.97
2017-12-06T18:03:54.987Z,20.63
2017-12-06T18:06:22.390Z,21.10
2017-12-06T18:08:49.807Z,20.13
2017-12-06T18:11:17.239Z,20.30
2017-12-06T18:13:44.659Z,19.17
2017-12-06T18:16:12.090Z,20.43
2017-12-06T18:18:40.275Z,20.60
2017-12-06T18:21:09.467Z,20.70
2017-12-06T18:23:37.638Z,20.80
2017-12-06T18:26:05.836Z,19.70
2017-12-06T18:28:33.250Z,19.87
2017-12-06T18:31:03.096Z,18.70
2017-12-06T18:33:30.510Z,18.80
2017-12-06T18:35:57.935Z,19.30
2017-12-06T18:38:25.364Z,19.63
2017-12-06T18:40:52.793Z,19.70
2017-12-06T18:43:20.203Z,19.20
2017-12-06T18:45:47.640Z,21.17
2017-12-06T18:48:16.251Z,21.17
2017-12-06T18:50:43.672Z,19.67
2017-12-06T18:53:11.091Z,20.00
2017-12-06T18:55:38.532Z,20.47
2017-12-06T18:58:05.955Z,20.73
2017-12-06T19:00:33.371Z,21.00
2017-12-06T19:03:00.795Z,21.00
2017-12-06T19:05:28.210Z,21.00
2017-12-06T19:07:55.642Z,22.47
2017-12-06T19:10:23.059Z,20.43
2017-12-06T19:12:50.521Z,20.83
2017-12-06T19:15:17.927Z,22.57
2017-12-06T19:17:46.500Z,20.37
2017-12-06T19:20:13.887Z,20.27
2017-12-06T19:22:41.311Z,20.10
2017-12-06T19:25:08.730Z,19.57
2017-12-06T19:27:41.657Z,21.37
2017-12-06T19:30:09.063Z,20.23
2017-12-06T19:32:36.492Z,20.37
2017-12-06T19:35:03.911Z,18.83
2017-12-06T19:37:31.353Z,20.67
2017-12-06T19:39:58.777Z,20.50
2017-12-06T19:42:26.201Z,20.67
2017-12-06T19:44:54.812Z,20.90
2017-12-06T19:47:22.231Z,20.80
2017-12-06T19:49:49.651Z,20.20
2017-12-06T19:52:17.079Z,20.67
2017-12-06T19:54:44.491Z,20.53
2017-12-06T19:57:15.021Z,21.87
2017-12-06T19:59:43.085Z,22.00
2017-12-06T20:02:10.479Z,21.43
2017-12-06T20:04:38.681Z,20.57
2017-12-06T20:07:10.175Z,21.03
2017-12-06T20:09:37.599Z,20.77
2017-12-06T20:12:05.027Z,19.80
2017-12-06T20:14:32.459Z,21.40
2017-12-06T20:16:59.882Z,20.77
2017-12-06T20:19:28.080Z,20.53
2017-12-06T20:21:55.499Z,20.13
2017-12-06T20:24:23.475Z,21.10
2017-12-06T20:26:50.917Z,19.33
2017-12-06T20:29:19.354Z,19.13
2017-12-06T20:31:47.551Z,19.60
2017-12-06T20:34:16.416Z,20.20
2017-12-06T20:36:43.831Z,20.27
2017-12-06T20:39:11.250Z,19.80
2017-12-06T20:41:38.719Z,18.33
2017-12-06T20:44:06.143Z,18.67
2017-12-06T20:46:35.037Z,19.63
2017-12-06T20:49:03.240Z,20.80
2017-12-06T20:51:31.087Z,19.67
2017-12-06T20:53:59.294Z,19.83
2017-12-06T20:56:37.724Z,20.23
2017-12-06T20:59:05.149Z,19.47
2017-12-06T21:01:32.566Z,20.53
2017-12-06T21:03:59.998Z,19.10
2017-12-06T21:06:27.949Z,20.33
2017-12-06T21:08:55.371Z,21.07
2017-12-06T21:11:23.559Z,18.47
2017-12-06T21:13:50.987Z,18.83
2017-12-06T21:16:18.412Z,19.83
2017-12-06T21:18:53.799Z,19.13
2017-12-06T21:21:21.990Z,20.40
2017-12-06T21:23:49.416Z,20.37
2017-12-06T21:26:16.840Z,19.50
2017-12-06T21:28:44.255Z,20.00
2017-12-06T21:31:11.678Z,19.13
2017-12-06T21:33:39.107Z,20.60
2017-12-06T21:36:06.519Z,21.40
2017-12-06T21:38:34.942Z,21.17
2017-12-06T21:41:02.368Z,21.10
2017-12-06T21:43:29.792Z,21.40
2017-12-06T21:45:57.216Z,22.17
2017-12-06T21:48:24.639Z,20.50
2017-12-06T21:50:52.063Z,21.67
2017-12-06T21:53:20.247Z,20.23
2017-12-06T21:55:48.443Z,20.03
2017-12-06T21:58:15.863Z,21.03
2017-12-06T22:00:43.487Z,21.90
2017-12-06T22:03:10.918Z,20.77
2017-12-06T22:05:38.371Z,21.33
2017-12-06T22:08:05.767Z,22.07
2017-12-06T22:10:33.191Z,21.60
2017-12-06T22:13:01.160Z,20.93
2017-12-06T22:15:28.907Z,21.17
2017-12-06T22:17:57.647Z,21.20
2017-12-06T22:20:25.087Z,20.33
2017-12-06T22:22:56.062Z,22.07
2017-12-06T22:25:23.486Z,20.77
2017-12-06T22:27:50.916Z,21.53
2017-12-06T22:30:18.363Z,21.27
2017-12-06T22:32:46.951Z,20.03
2017-12-06T22:35:14.363Z,21.47
2017-12-06T22:37:42.197Z,21.53
2017-12-06T22:40:11.564Z,21.87
2017-12-06T22:42:38.963Z,20.90
2017-12-06T22:45:15.351Z,21.87
2017-12-06T22:47:42.751Z,22.30
2017-12-06T22:50:10.939Z,22.50
2017-12-06T22:52:38.906Z,22.73
2017-12-06T22:55:06.385Z,21.77
2017-12-06T22:57:34.043Z,21.30
2017-12-06T23:00:01.847Z,22.57
2017-12-06T23:02:29.279Z,22.00
2017-12-06T23:04:56.698Z,21.37
2017-12-06T23:07:25.262Z,21.13
2017-12-06T23:09:53.443Z,22.10
2017-12-06T23:12:22.629Z,21.33
2017-12-06T23:14:50.038Z,21.60
2017-12-06T23:17:17.459Z,22.63
2017-12-06T23:19:44.890Z,20.93
2017-12-06T23:22:12.311Z,22.50
2017-12-06T23:24:39.728Z,20.67
2017-12-06T23:27:07.935Z,22.20
2017-12-06T23:29:35.349Z,20.87
2017-12-06T23:32:03.564Z,20.33
2017-12-06T23:34:31.404Z,20.77
2017-12-06T23:36:58.818Z,19.53
2017-12-06T23:39:26.248Z,21.53
2017-12-06T23:41:54.233Z,19.43
2017-12-06T23:44:21.659Z,20.53
2017-12-06T23:46:49.080Z,20.27
2017-12-06T23:49:17.272Z,20.83
2017-12-06T23:51:45.230Z,19.00
2017-12-06T23:54:13.425Z,20.50
2017-12-06T23:56:40.851Z,19.53
2017-12-06T23:59:08.269Z,19.87
